Time;durP1;ratioP1;P1;durP2;ratioP2;P2;SDS_P1;SDS_P2;PMS_P1;PMS_P2;Temp;Humidity;BMP_temperature;BMP_pressure;BME280_temperature;BME280_humidity;BME280_pressure;Samples;Min_cycle;Max_cycle;Signal;HPM_P1;HPM_P2
2022/05/20 00:01:09;;;;;;;8.70;2.53;;;21.20;76.60;;;;;;5072522;28;20048;-69
2022/05/20 00:03:37;;;;;;;9.20;2.50;;;21.20;76.40;;;;;;5072682;28;20125;-69
2022/05/20 00:06:03;;;;;;;9.25;2.70;;;21.10;76.20;;;;;;5072615;28;20462;-69
2022/05/20 00:08:29;;;;;;;5.55;2.20;;;21.10;76.40;;;;;;5072608;28;20395;-69
2022/05/20 00:10:55;;;;;;;10.50;2.58;;;21.00;76.40;;;;;;5072548;28;20124;-69
2022/05/20 00:13:26;;;;;;;10.93;2.50;;;21.10;76.20;;;;;;5072575;28;20067;-69
2022/05/20 00:15:53;;;;;;;9.70;2.08;;;21.10;76.00;;;;;;5068958;28;20044;-69
2022/05/20 00:18:19;;;;;;;13.38;2.85;;;21.00;76.40;;;;;;5070395;28;20044;-69
2022/05/20 00:20:46;;;;;;;9.82;2.95;;;21.00;76.60;;;;;;5072044;28;20205;-69
2022/05/20 00:23:12;;;;;;;8.73;3.10;;;21.00;77.00;;;;;;5072373;28;20040;-69
2022/05/20 00:25:47;;;;;;;6.13;2.53;;;21.00;76.50;;;;;;5072422;28;20072;-69
2022/05/20 00:28:28;;;;;;;9.80;2.70;;;20.90;77.70;;;;;;5072352;28;20097;-69
2022/05/20 00:30:55;;;;;;;8.18;2.28;;;20.80;78.00;;;;;;5072441;28;20384;-69
2022/05/20 00:33:22;;;;;;;11.93;3.05;;;20.80;77.90;;;;;;5073788;28;20032;-69
2022/05/20 00:35:48;;;;;;;8.05;2.88;;;20.80;78.10;;;;;;5076108;28;20055;-69
2022/05/20 00:38:15;;;;;;;10.35;2.90;;;20.70;78.60;;;;;;5076037;28;20037;-69
2022/05/20 00:40:42;;;;;;;6.65;2.65;;;20.60;78.80;;;;;;5076206;28;20048;-68
2022/05/20 00:43:35;;;;;;;10.38;2.58;;;20.40;79.30;;;;;;5075967;28;20048;-69
2022/05/20 00:46:24;;;;;;;7.88;2.60;;;20.30;79.10;;;;;;5067977;28;20047;-69
2022/05/20 00:48:59;;;;;;;9.15;2.60;;;20.40;78.90;;;;;;5075959;28;20141;-68
2022/05/20 00:51:32;;;;;;;9.98;3.00;;;20.40;78.90;;;;;;5075937;28;20075;-68
2022/05/20 00:54:08;;;;;;;7.75;2.80;;;20.30;79.20;;;;;;5075764;28;20051;-69
2022/05/20 00:56:49;;;;;;;16.40;2.58;;;20.20;79.50;;;;;;5075161;28;20140;-69
2022/05/20 00:59:20;;;;;;;8.55;2.40;;;20.20;80.00;;;;;;5075835;28;20040;-69
2022/05/20 01:01:52;;;;;;;9.65;3.13;;;20.20;80.00;;;;;;5075815;28;20036;-69
2022/05/20 01:04:20;;;;;;;9.23;2.55;;;20.10;80.00;;;;;;5075551;28;20117;-69
2022/05/20 01:06:45;;;;;;;16.73;3.55;;;20.10;80.30;;;;;;5075721;28;20044;-69
2022/05/20 01:09:11;;;;;;;9.00;2.65;;;20.00;80.30;;;;;;5075568;28;20058;-69
2022/05/20 01:11:39;;;;;;;15.70;3.20;;;20.00;81.10;;;;;;5075599;28;20206;-68
2022/05/20 01:14:07;;;;;;;11.93;2.85;;;19.90;80.80;;;;;;5075413;28;20561;-69
2022/05/20 01:16:33;;;;;;;8.10;2.60;;;19.90;81.10;;;;;;5075422;28;20535;-69
2022/05/20 01:19:01;;;;;;;8.93;3.10;;;19.80;81.30;;;;;;5075336;28;20044;-69
2022/05/20 01:21:27;;;;;;;11.65;2.90;;;19.80;81.80;;;;;;5075207;28;20112;-69
2022/05/20 01:24:00;;;;;;;10.93;2.97;;;19.70;81.70;;;;;;5075216;28;20043;-69
2022/05/20 01:26:26;;;;;;;10.48;2.33;;;19.70;82.00;;;;;;5074783;28;20041;-68
2022/05/20 01:28:51;;;;;;;9.00;3.17;;;19.70;81.70;;;;;;5075160;28;20036;-69
2022/05/20 01:31:17;;;;;;;7.03;2.47;;;19.70;81.70;;;;;;5075029;28;20043;-69
2022/05/20 01:33:47;;;;;;;11.77;2.75;;;19.70;81.70;;;;;;5075207;28;20040;-69
2022/05/20 01:36:19;;;;;;;18.60;2.92;;;19.70;81.60;;;;;;5075157;28;20755;-69
2022/05/20 01:38:46;;;;;;;7.63;2.63;;;19.70;81.80;;;;;;5075053;28;20040;-69
2022/05/20 01:41:31;;;;;;;11.02;3.60;;;19.60;82.40;;;;;;5075157;28;20048;-68
2022/05/20 01:44:16;;;;;;;7.75;2.30;;;19.50;82.30;;;;;;5074204;28;20502;-69
2022/05/20 01:46:49;;;;;;;12.45;2.97;;;19.50;82.80;;;;;;5074401;28;20047;-69
2022/05/20 01:49:40;;;;;;;8.48;2.75;;;19.40;83.20;;;;;;5074847;28;20047;-68
2022/05/20 01:52:41;;;;;;;8.98;2.97;;;19.40;83.40;;;;;;5062723;28;20523;-69
2022/05/20 01:55:16;;;;;;;;;;;19.30;83.30;;;;;;5051973;28;20037;-69
2022/05/20 01:57:51;;;;;;;7.78;3.15;;;19.40;83.40;;;;;;5054135;28;19916;-68
2022/05/20 02:00:21;;;;;;;10.52;2.70;;;19.40;83.70;;;;;;5053541;28;20037;-68
2022/05/20 02:02:53;;;;;;;8.33;2.93;;;19.30;83.60;;;;;;5054353;28;20120;-68
2022/05/20 02:05:25;;;;;;;6.85;2.78;;;19.20;83.90;;;;;;5069993;28;20033;-69
2022/05/20 02:07:58;;;;;;;11.43;2.92;;;19.30;83.70;;;;;;5054577;28;20044;-68
2022/05/20 02:10:37;;;;;;;10.70;2.78;;;19.20;84.20;;;;;;5054337;28;20374;-69
2022/05/20 02:13:07;;;;;;;12.52;3.05;;;19.30;83.70;;;;;;5054082;28;20125;-69
2022/05/20 02:15:44;;;;;;;9.73;3.25;;;19.20;84.10;;;;;;5053985;28;20056;-69
2022/05/20 02:18:16;;;;;;;8.25;3.15;;;19.20;84.00;;;;;;5054070;28;20048;-68
2022/05/20 02:20:48;;;;;;;6.72;2.65;;;19.20;84.10;;;;;;5054205;28;20053;-68
2022/05/20 02:23:32;;;;;;;7.57;2.58;;;19.20;84.20;;;;;;5054013;28;20033;-69
2022/05/20 02:26:16;;;;;;;16.75;3.80;;;19.20;84.20;;;;;;5054133;28;20431;-69
2022/05/20 02:28:47;;;;;;;12.98;2.67;;;19.20;84.00;;;;;;5053942;28;20124;-69
2022/05/20 02:31:22;;;;;;;5.45;2.22;;;19.10;84.50;;;;;;5053786;28;20041;-68
2022/05/20 02:33:48;;;;;;;7.80;2.53;;;19.10;84.90;;;;;;5053754;28;20386;-69
2022/05/20 02:36:24;;;;;;;8.32;2.70;;;19.10;85.20;;;;;;5053949;28;20064;-69
2022/05/20 02:38:51;;;;;;;11.07;3.05;;;18.90;85.20;;;;;;5053911;28;20045;-68
2022/05/20 02:41:17;;;;;;;10.02;3.10;;;19.10;84.30;;;;;;5053857;28;20055;-69
2022/05/20 02:43:43;;;;;;;8.65;2.38;;;19.00;84.70;;;;;;5053641;28;20040;-68
2022/05/20 02:46:11;;;;;;;5.68;2.92;;;19.00;85.20;;;;;;5053536;28;20435;-69
2022/05/20 02:48:36;;;;;;;8.23;2.63;;;18.80;85.40;;;;;;5053544;28;20053;-69
2022/05/20 02:51:03;;;;;;;11.45;2.65;;;18.90;85.60;;;;;;5053521;28;20049;-69
2022/05/20 02:53:29;;;;;;;8.35;2.80;;;19.00;85.50;;;;;;5053302;28;20025;-69
2022/05/20 02:55:55;;;;;;;7.72;2.22;;;18.80;86.30;;;;;;5052692;28;20102;-68
2022/05/20 03:04:12;;;;;;;;;;;18.60;86.50;;;;;;5073880;28;20166;-68
2022/05/20 03:06:43;;;;;;;7.53;3.22;;;18.60;86.70;;;;;;5073345;28;19944;-69
2022/05/20 03:09:11;;;;;;;11.82;3.15;;;18.50;85.90;;;;;;5073224;28;20028;-69
2022/05/20 03:11:39;;;;;;;7.30;2.97;;;18.70;86.50;;;;;;5073404;28;20048;-69
2022/05/20 03:14:08;;;;;;;7.82;2.35;;;18.60;86.50;;;;;;5073037;28;20043;-69
2022/05/20 03:16:35;;;;;;;11.00;2.83;;;18.60;86.20;;;;;;5072727;28;20056;-69
2022/05/20 03:19:01;;;;;;;7.70;2.78;;;18.70;85.70;;;;;;5073054;28;20475;-68
2022/05/20 03:21:27;;;;;;;8.77;2.67;;;18.80;85.00;;;;;;5073191;28;20803;-69
2022/05/20 03:23:53;;;;;;;9.68;3.13;;;18.80;84.50;;;;;;5072971;28;20024;-69
2022/05/20 03:26:20;;;;;;;5.53;2.30;;;18.80;85.30;;;;;;5072261;28;20067;-69
2022/05/20 03:28:46;;;;;;;14.93;3.00;;;18.80;84.90;;;;;;5072870;28;20131;-69
2022/05/20 03:31:13;;;;;;;13.82;3.10;;;18.80;84.80;;;;;;5073017;28;20539;-68
2022/05/20 03:33:41;;;;;;;11.73;3.60;;;18.90;84.40;;;;;;5072949;28;20045;-68
2022/05/20 03:36:07;;;;;;;9.73;2.85;;;18.80;84.70;;;;;;5073143;28;20036;-69
2022/05/20 03:38:35;;;;;;;12.52;3.22;;;18.80;85.20;;;;;;5072622;28;20064;-69
2022/05/20 03:41:01;;;;;;;9.73;3.25;;;18.70;85.00;;;;;;5072658;28;20051;-69
2022/05/20 03:43:27;;;;;;;9.65;2.65;;;18.70;84.80;;;;;;5072647;28;20044;-69
2022/05/20 03:45:53;;;;;;;10.00;3.00;;;18.70;85.90;;;;;;5072766;28;20403;-69
2022/05/20 03:48:20;;;;;;;16.00;2.92;;;18.70;85.10;;;;;;5072811;28;20036;-68
2022/05/20 03:50:46;;;;;;;9.75;3.40;;;18.60;85.10;;;;;;5072679;28;20048;-68
2022/05/20 03:53:12;;;;;;;10.70;3.15;;;18.60;86.10;;;;;;5072867;28;20519;-68
2022/05/20 03:55:38;;;;;;;11.32;3.05;;;18.60;85.30;;;;;;5072781;28;20040;-68
2022/05/20 03:58:04;;;;;;;8.55;2.80;;;18.60;85.50;;;;;;5072833;28;20052;-69
2022/05/20 04:00:30;;;;;;;12.27;3.35;;;18.50;85.40;;;;;;5072655;28;20036;-69
2022/05/20 04:02:55;;;;;;;7.97;2.95;;;18.50;85.60;;;;;;5072679;28;20097;-69
2022/05/20 04:05:21;;;;;;;8.27;2.95;;;18.40;85.60;;;;;;5072341;28;20040;-69
2022/05/20 04:07:47;;;;;;;12.15;2.90;;;18.50;85.30;;;;;;5072968;28;20094;-68
2022/05/20 04:10:13;;;;;;;7.80;2.88;;;18.60;85.80;;;;;;5076690;28;20040;-68
2022/05/20 04:12:42;;;;;;;8.65;2.50;;;18.50;85.50;;;;;;5076683;28;20573;-68
2022/05/20 04:15:11;;;;;;;9.77;2.67;;;18.60;86.00;;;;;;5076516;28;20054;-69
2022/05/20 04:17:37;;;;;;;13.43;3.33;;;18.60;85.40;;;;;;5076054;28;20052;-68
2022/05/20 04:20:06;;;;;;;7.55;2.72;;;18.60;85.40;;;;;;5072995;28;20051;-68
2022/05/20 04:22:38;;;;;;;10.45;3.28;;;18.60;86.00;;;;;;5073056;28;20044;-68
2022/05/20 04:25:08;;;;;;;9.15;2.60;;;18.60;85.50;;;;;;5074206;28;20045;-69
2022/05/20 04:27:35;;;;;;;8.38;2.30;;;18.70;84.50;;;;;;5076383;28;20051;-69
2022/05/20 04:30:02;;;;;;;12.30;2.47;;;18.60;84.90;;;;;;5075117;28;20051;-69
2022/05/20 04:32:29;;;;;;;13.70;3.17;;;18.60;84.80;;;;;;5073176;28;20444;-69
2022/05/20 04:34:57;;;;;;;8.45;2.78;;;18.60;84.70;;;;;;5074254;28;20044;-69
2022/05/20 04:37:25;;;;;;;7.82;2.45;;;18.60;84.70;;;;;;5073151;28;20147;-68
2022/05/20 04:39:53;;;;;;;10.43;2.67;;;18.60;84.70;;;;;;5074081;28;20459;-68
2022/05/20 04:48:00;;;;;;;9.55;2.45;;;18.60;84.70;;;;;;5076122;28;20404;-69
2022/05/20 04:50:28;;;;;;;9.13;2.58;;;18.60;84.60;;;;;;5074991;28;20097;-69
2022/05/20 04:52:55;;;;;;;8.88;3.08;;;18.60;84.90;;;;;;5072710;28;20135;-69
2022/05/20 04:55:21;;;;;;;12.30;3.33;;;18.60;84.70;;;;;;5073315;28;20392;-68
2022/05/20 04:57:53;;;;;;;16.48;3.28;;;18.50;84.80;;;;;;5072996;28;20125;-69
2022/05/20 05:00:27;;;;;;;13.52;2.58;;;18.50;84.90;;;;;;5074133;28;20041;-68
2022/05/20 05:02:55;;;;;;;5.50;2.38;;;18.50;85.60;;;;;;5072941;28;20043;-69
2022/05/20 05:05:27;;;;;;;14.25;3.08;;;18.40;86.10;;;;;;5073478;28;20075;-68
2022/05/20 05:07:56;;;;;;;12.98;4.18;;;18.40;86.10;;;;;;5073497;28;20040;-68
2022/05/20 05:10:26;;;;;;;12.93;2.47;;;18.40;85.10;;;;;;5072734;28;20050;-69
2022/05/20 05:12:53;;;;;;;18.67;3.00;;;18.50;85.40;;;;;;5073545;28;20044;-69
2022/05/20 05:15:23;;;;;;;9.13;2.40;;;18.60;84.90;;;;;;5073465;28;20041;-68
2022/05/20 05:20:36;;;;;;;13.32;3.20;;;18.80;84.40;;;;;;5085541;28;20043;-68
2022/05/20 05:23:03;;;;;;;13.55;2.97;;;18.90;84.30;;;;;;5072049;28;20040;-68
2022/05/20 05:25:35;;;;;;;7.53;2.53;;;19.00;84.10;;;;;;5073454;28;20144;-69
2022/05/20 05:28:05;;;;;;;13.50;3.05;;;19.10;83.60;;;;;;5054631;28;20125;-69
2022/05/20 05:30:35;;;;;;;12.02;2.47;;;19.20;84.20;;;;;;5071907;28;20101;-69
2022/05/20 05:33:03;;;;;;;11.82;3.60;;;19.20;84.70;;;;;;5072448;28;20117;-69
2022/05/20 05:35:32;;;;;;;6.55;2.28;;;19.30;84.50;;;;;;5073404;28;20082;-69
2022/05/20 05:38:02;;;;;;;10.95;2.85;;;19.40;83.50;;;;;;5072369;28;20535;-69
2022/05/20 05:40:33;;;;;;;5.18;2.35;;;19.50;82.60;;;;;;5073099;28;20032;-69
2022/05/20 05:43:01;;;;;;;7.97;2.67;;;19.70;84.10;;;;;;5073046;28;20056;-69
2022/05/20 05:45:39;;;;;;;11.02;2.88;;;;;;;;;;5073017;28;20059;-69
2022/05/20 05:48:15;;;;;;;9.13;3.25;;;20.00;83.40;;;;;;5079672;28;20053;-69
2022/05/20 05:50:46;;;;;;;10.38;3.10;;;20.10;82.90;;;;;;5092633;28;20051;-69
2022/05/20 05:53:18;;;;;;;12.88;3.75;;;20.00;82.80;;;;;;5075557;28;20040;-69
2022/05/20 05:56:06;;;;;;;9.48;3.15;;;20.00;84.10;;;;;;5092593;28;20032;-69
2022/05/20 05:58:38;;;;;;;7.15;2.25;;;20.00;82.80;;;;;;5093252;28;20114;-69
2022/05/20 06:01:06;;;;;;;5.43;2.75;;;20.20;83.70;;;;;;5093328;28;20526;-69
2022/05/20 06:03:34;;;;;;;8.00;2.50;;;20.40;82.80;;;;;;5076704;28;20046;-69
2022/05/20 06:06:01;;;;;;;7.05;2.60;;;20.60;82.30;;;;;;5093286;28;20048;-69
2022/05/20 06:08:28;;;;;;;12.85;3.15;;;20.60;82.40;;;;;;5093062;28;20073;-68
2022/05/20 06:10:59;;;;;;;11.75;3.00;;;20.90;84.00;;;;;;5092750;28;20044;-69
2022/05/20 06:13:29;;;;;;;9.27;2.42;;;21.00;81.90;;;;;;5091109;28;20518;-68
2022/05/20 06:15:58;;;;;;;8.93;2.53;;;20.90;81.60;;;;;;5091183;28;20040;-69
2022/05/20 06:18:30;;;;;;;8.63;2.60;;;21.00;83.10;;;;;;5091331;28;20131;-69
2022/05/20 06:20:57;;;;;;;7.55;2.65;;;21.00;81.50;;;;;;5073824;28;20035;-69
2022/05/20 06:23:25;;;;;;;6.13;2.72;;;20.90;82.10;;;;;;5091406;28;20044;-69
2022/05/20 06:25:58;;;;;;;7.22;2.70;;;21.10;82.60;;;;;;5092044;28;20510;-69
2022/05/20 06:28:31;;;;;;;7.28;2.53;;;21.10;82.70;;;;;;5091062;28;20445;-69
2022/05/20 06:31:00;;;;;;;10.63;2.90;;;21.20;81.40;;;;;;5090380;28;20040;-69
2022/05/20 06:33:27;;;;;;;7.88;2.45;;;21.30;82.30;;;;;;5091841;28;20078;-69
2022/05/20 06:41:24;;;;;;;9.80;2.50;;;21.30;81.20;;;;;;5093891;28;20105;-69
2022/05/20 06:43:54;;;;;;;8.60;2.45;;;21.40;81.00;;;;;;5091692;28;20093;-69
2022/05/20 06:46:25;;;;;;;14.35;2.85;;;21.40;81.30;;;;;;5090962;28;20571;-69
2022/05/20 06:48:55;;;;;;;14.68;3.00;;;21.50;80.90;;;;;;5091801;28;20043;-69
2022/05/20 06:51:29;;;;;;;7.38;2.33;;;21.60;81.40;;;;;;5093166;28;20044;-69
2022/05/20 06:54:01;;;;;;;16.42;4.38;;;21.70;80.30;;;;;;5090407;28;20068;-69
2022/05/20 06:56:32;;;;;;;9.27;2.28;;;21.70;81.10;;;;;;5073785;28;20052;-69
2022/05/20 06:58:59;;;;;;;;;;;21.80;81.00;;;;;;5091136;28;20047;-69
2022/05/20 07:01:30;;;;;;;8.10;2.30;;;22.00;82.10;;;;;;5090579;28;19912;-69
2022/05/20 07:04:01;;;;;;;16.75;2.72;;;21.90;80.50;;;;;;5091687;28;20071;-69
2022/05/20 07:06:30;;;;;;;11.98;2.85;;;22.10;80.60;;;;;;5091671;28;20048;-69
2022/05/20 07:08:59;;;;;;;8.63;2.38;;;22.00;79.40;;;;;;5078704;28;20062;-69
2022/05/20 07:11:27;;;;;;;12.65;2.63;;;22.20;80.50;;;;;;5070165;28;20048;-69
2022/05/20 07:13:56;;;;;;;7.43;2.17;;;22.20;80.20;;;;;;5069499;28;20040;-69
2022/05/20 07:16:29;;;;;;;7.13;2.63;;;22.30;80.20;;;;;;5071093;28;20079;-69
2022/05/20 07:18:57;;;;;;;9.80;2.70;;;22.60;79.80;;;;;;5071258;28;20047;-69
2022/05/20 07:21:25;;;;;;;10.27;2.90;;;22.90;80.20;;;;;;5071426;28;20056;-69
2022/05/20 07:23:52;;;;;;;15.00;2.97;;;22.90;79.00;;;;;;5070740;28;20040;-69
2022/05/20 07:26:19;;;;;;;14.35;2.20;;;23.00;79.90;;;;;;5071458;28;20090;-69
2022/05/20 07:28:46;;;;;;;16.35;2.58;;;23.10;78.60;;;;;;5071204;28;20032;-70
2022/05/20 07:31:15;;;;;;;13.13;2.53;;;23.40;79.20;;;;;;5071675;28;20534;-70
2022/05/20 07:33:43;;;;;;;18.70;2.72;;;23.50;78.30;;;;;;5070908;28;20496;-70
2022/05/20 07:36:10;;;;;;;9.77;2.33;;;23.40;78.40;;;;;;5071423;28;20519;-70
2022/05/20 07:38:43;;;;;;;8.85;2.42;;;23.60;78.20;;;;;;5071273;28;20052;-70
2022/05/20 07:41:11;;;;;;;8.25;2.17;;;23.70;77.90;;;;;;5071522;28;20124;-70
2022/05/20 07:43:44;;;;;;;12.45;2.60;;;23.80;77.20;;;;;;5071442;28;20048;-69
2022/05/20 07:46:11;;;;;;;15.77;2.90;;;23.70;76.70;;;;;;5069591;28;20569;-69
2022/05/20 07:48:42;;;;;;;7.10;2.28;;;23.80;76.00;;;;;;5071264;28;20043;-70
2022/05/20 07:51:14;;;;;;;11.43;3.60;;;23.90;76.60;;;;;;5071351;28;20051;-70
2022/05/20 07:53:46;;;;;;;6.50;2.72;;;24.20;77.00;;;;;;5070978;28;20048;-70
2022/05/20 07:56:41;;;;;;;14.85;2.70;;;24.10;75.10;;;;;;5071087;28;20052;-70
2022/05/20 07:59:34;;;;;;;8.07;2.78;;;24.30;76.30;;;;;;5071423;28;20040;-70
2022/05/20 08:02:04;;;;;;;11.40;2.25;;;24.40;74.90;;;;;;5070460;28;20447;-70
2022/05/20 08:05:01;;;;;;;9.00;2.35;;;24.50;74.90;;;;;;5071075;28;20450;-70
2022/05/20 08:07:44;;;;;;;12.55;2.97;;;24.70;74.70;;;;;;5056879;28;20044;-69
2022/05/20 08:10:22;;;;;;;8.75;2.38;;;24.80;74.30;;;;;;5072058;28;20048;-70
2022/05/20 08:12:49;;;;;;;7.65;2.35;;;25.10;75.60;;;;;;5070829;28;20048;-70
2022/05/20 08:15:18;;;;;;;9.57;2.20;;;25.40;76.10;;;;;;5070844;28;20047;-70
2022/05/20 08:17:47;;;;;;;9.98;2.50;;;25.60;74.70;;;;;;5070336;28;20044;-70
2022/05/20 08:20:30;;;;;;;14.35;2.75;;;25.60;72.70;;;;;;5069469;28;20049;-70
2022/05/20 08:22:57;;;;;;;12.88;2.33;;;25.40;71.10;;;;;;5053129;28;20049;-70
2022/05/20 08:25:25;;;;;;;17.42;2.22;;;25.40;70.30;;;;;;5069198;28;20032;-70
2022/05/20 08:27:54;;;;;;;13.30;2.38;;;25.30;70.80;;;;;;5050452;28;20037;-70
2022/05/20 08:30:24;;;;;;;11.52;2.55;;;25.20;70.00;;;;;;5068783;28;20515;-69
2022/05/20 08:32:50;;;;;;;;;;;25.40;70.90;;;;;;5071409;28;20522;-69
2022/05/20 08:35:17;;;;;;;9.98;2.15;;;25.60;70.50;;;;;;5072656;28;20007;-70
2022/05/20 08:37:46;;;;;;;13.30;2.58;;;25.70;70.10;;;;;;5072499;28;20135;-70
2022/05/20 08:40:17;;;;;;;10.32;2.97;;;25.60;69.80;;;;;;5072060;28;20051;-70
2022/05/20 08:42:43;;;;;;;13.60;2.90;;;25.70;70.70;;;;;;5072242;28;20415;-69
2022/05/20 08:45:12;;;;;;;8.93;2.75;;;25.80;71.20;;;;;;5072530;28;20039;-70
2022/05/20 08:47:43;;;;;;;4.97;1.60;;;25.50;69.50;;;;;;5072478;28;20033;-70
2022/05/20 08:50:40;;;;;;;7.85;2.33;;;26.00;70.60;;;;;;5072505;28;20040;-70
2022/05/20 08:53:38;;;;;;;8.10;2.10;;;26.20;69.80;;;;;;5072376;28;20052;-70
2022/05/20 08:56:07;;;;;;;12.32;2.78;;;26.30;69.90;;;;;;5075961;28;20048;-70
2022/05/20 08:58:35;;;;;;;11.82;2.13;;;26.40;69.80;;;;;;5075930;28;20058;-70
2022/05/20 09:01:01;;;;;;;10.65;2.72;;;26.30;70.20;;;;;;5075666;28;20504;-70
2022/05/20 09:03:26;;;;;;;8.23;2.63;;;26.20;68.90;;;;;;5075583;28;20052;-69
2022/05/20 09:06:15;;;;;;;5.20;2.30;;;26.20;69.60;;;;;;5075637;28;20377;-70
2022/05/20 09:08:41;;;;;;;11.02;2.10;;;26.40;70.40;;;;;;5075761;28;20036;-70
2022/05/20 09:11:14;;;;;;;6.78;2.33;;;26.40;68.40;;;;;;5075445;28;20123;-70
2022/05/20 09:16:27;;;;;;;12.80;2.15;;;26.50;69.00;;;;;;5075485;28;20533;-70
2022/05/20 09:19:05;;;;;;;16.15;2.17;;;26.70;68.40;;;;;;5075458;28;20504;-70
2022/05/20 09:21:41;;;;;;;20.92;2.53;;;26.90;68.70;;;;;;5074964;28;20041;-70
2022/05/20 09:24:16;;;;;;;18.15;2.60;;;27.00;67.90;;;;;;5075246;28;20044;-70
2022/05/20 09:26:49;;;;;;;16.70;2.88;;;26.80;67.00;;;;;;5075122;28;20095;-69
2022/05/20 09:29:29;;;;;;;13.30;2.03;;;26.90;68.20;;;;;;5075287;28;20573;-70
2022/05/20 09:32:00;;;;;;;7.28;2.33;;;26.80;67.50;;;;;;5075252;28;20040;-70
2022/05/20 09:34:26;;;;;;;9.80;2.38;;;27.20;68.30;;;;;;5075160;28;20033;-70
2022/05/20 09:37:10;;;;;;;9.30;2.20;;;26.80;67.20;;;;;;5075062;28;20527;-70
2022/05/20 09:39:41;;;;;;;13.45;2.45;;;26.90;67.20;;;;;;5075089;28;20067;-70
2022/05/20 09:42:19;;;;;;;18.33;3.08;;;27.30;67.70;;;;;;5075164;28;20515;-70
2022/05/20 09:44:51;;;;;;;14.20;2.33;;;27.10;67.10;;;;;;5074954;28;20068;-70
2022/05/20 09:47:33;;;;;;;5.95;1.92;;;26.90;67.30;;;;;;5075035;28;20044;-70
2022/05/20 09:50:05;;;;;;;9.90;2.30;;;27.00;67.50;;;;;;5075013;28;20032;-70
2022/05/20 09:52:46;;;;;;;13.02;2.80;;;26.90;66.80;;;;;;5074500;28;20052;-70
2022/05/20 09:55:23;;;;;;;12.20;2.58;;;27.10;67.40;;;;;;5073429;28;20377;-70
2022/05/20 09:57:49;;;;;;;24.42;2.63;;;27.20;66.80;;;;;;5074257;28;20056;-71
2022/05/20 10:00:28;;;;;;;9.60;2.60;;;27.20;67.20;;;;;;5073770;28;20036;-70
2022/05/20 10:03:03;;;;;;;22.40;3.08;;;26.70;66.50;;;;;;5074736;28;20032;-70
2022/05/20 10:05:45;;;;;;;18.30;2.90;;;26.90;66.40;;;;;;5073660;28;20495;-70
2022/05/20 10:08:28;;;;;;;22.33;2.28;;;27.30;66.50;;;;;;5074604;28;20140;-70
2022/05/20 10:11:12;;;;;;;12.48;2.70;;;27.30;65.90;;;;;;5074495;28;20504;-70
2022/05/20 10:14:05;;;;;;;11.23;2.88;;;26.90;66.50;;;;;;5074334;28;20040;-70
2022/05/20 10:16:58;;;;;;;9.13;2.47;;;27.10;66.90;;;;;;5074212;28;20052;-70
2022/05/20 10:19:52;;;;;;;20.13;2.45;;;27.30;66.40;;;;;;5074303;28;20048;-70
2022/05/20 10:22:39;;;;;;;7.55;2.00;;;27.20;66.60;;;;;;5074220;28;20044;-70
2022/05/20 10:25:30;;;;;;;9.70;2.75;;;27.40;67.40;;;;;;5072976;28;20131;-70
2022/05/20 10:28:04;;;;;;;8.00;2.30;;;27.20;67.10;;;;;;5074138;28;20170;-70
2022/05/20 10:33:39;;;;;;;8.73;2.63;;;26.70;66.70;;;;;;5074044;28;20039;-70
2022/05/20 10:36:37;;;;;;;14.98;3.20;;;26.70;67.50;;;;;;5073886;28;20044;-70
2022/05/20 10:39:25;;;;;;;8.80;2.70;;;26.80;67.20;;;;;;5073587;28;20044;-70
2022/05/20 10:42:01;;;;;;;15.23;3.28;;;26.70;67.90;;;;;;5072622;28;20064;-70
2022/05/20 10:50:31;;;;;;;13.25;3.28;;;26.80;68.20;;;;;;5073890;28;20071;-70
2022/05/20 10:53:19;;;;;;;11.98;2.50;;;27.10;69.10;;;;;;5073965;28;20050;-70
2022/05/20 10:56:30;;;;;;;10.70;2.92;;;27.40;67.70;;;;;;5073538;28;20169;-70
2022/05/20 10:59:04;;;;;;;14.73;2.83;;;28.10;68.90;;;;;;5073614;28;20059;-70
2022/05/20 11:02:05;;;;;;;9.85;2.60;;;28.40;68.80;;;;;;5073050;28;20105;-70
2022/05/20 11:04:49;;;;;;;13.10;3.03;;;28.40;67.20;;;;;;5039338;28;20044;-70
2022/05/20 11:07:32;;;;;;;12.80;3.30;;;28.50;68.80;;;;;;5073601;28;20036;-70
2022/05/20 11:10:16;;;;;;;16.00;3.15;;;28.60;67.50;;;;;;5073494;28;20139;-70
2022/05/20 11:12:56;;;;;;;12.10;2.58;;;28.70;68.50;;;;;;5073430;28;20047;-70
2022/05/20 11:15:28;;;;;;;10.75;2.22;;;28.80;67.90;;;;;;5073502;28;20049;-71
2022/05/20 11:18:12;;;;;;;8.75;2.35;;;29.10;67.10;;;;;;5071774;28;20075;-70
2022/05/20 11:20:58;;;;;;;11.98;3.05;;;29.40;65.70;;;;;;5073135;28;20046;-70
2022/05/20 11:23:39;;;;;;;10.68;2.75;;;29.40;65.60;;;;;;5072710;28;20047;-70
2022/05/20 11:26:16;;;;;;;11.07;2.63;;;29.70;66.40;;;;;;5073246;28;20060;-70
2022/05/20 11:29:07;;;;;;;10.85;2.45;;;29.70;64.30;;;;;;5073265;28;20158;-70
2022/05/20 11:31:39;;;;;;;20.80;2.92;;;30.10;66.30;;;;;;5073206;28;20036;-70
2022/05/20 11:34:17;;;;;;;12.07;2.45;;;29.50;65.60;;;;;;5073212;28;20098;-69
2022/05/20 11:37:10;;;;;;;14.93;3.33;;;29.20;66.80;;;;;;5072935;28;20048;-69
2022/05/20 11:39:37;;;;;;;14.38;3.28;;;29.60;65.20;;;;;;5072851;28;20032;-68
2022/05/20 11:42:37;;;;;;;13.57;2.70;;;29.80;65.50;;;;;;5073162;28;20044;-69
2022/05/20 11:45:26;;;;;;;14.32;2.58;;;29.90;66.30;;;;;;5064186;28;20041;-69
2022/05/20 11:48:04;;;;;;;16.30;3.25;;;30.00;64.60;;;;;;5069733;28;20051;-69
2022/05/20 11:51:07;;;;;;;16.30;2.47;;;30.50;63.60;;;;;;5072979;28;20040;-68
2022/05/20 11:54:08;;;;;;;15.73;3.00;;;30.40;62.00;;;;;;5072830;28;20048;-69
2022/05/20 11:57:02;;;;;;;11.52;2.92;;;30.20;62.20;;;;;;5072594;28;20040;-69
2022/05/20 11:59:36;;;;;;;14.50;2.60;;;30.60;63.00;;;;;;5067574;28;20040;-69
2022/05/20 12:02:09;;;;;;;12.85;2.85;;;30.60;62.90;;;;;;5072794;28;20040;-69
2022/05/20 12:04:38;;;;;;;15.52;3.30;;;30.60;61.80;;;;;;5072460;28;20039;-69
2022/05/20 12:07:16;;;;;;;15.27;2.77;;;;;;;;;;5072686;28;20115;-68
2022/05/20 12:09:47;;;;;;;14.05;3.35;;;30.70;61.70;;;;;;5072733;28;20049;-69
2022/05/20 12:12:17;;;;;;;8.98;2.53;;;30.30;61.70;;;;;;5072864;28;20071;-69
2022/05/20 12:15:05;;;;;;;12.10;2.78;;;30.30;62.50;;;;;;5072754;28;20040;-69
2022/05/20 12:17:44;;;;;;;13.30;2.58;;;30.20;62.00;;;;;;5072624;28;20377;-69
2022/05/20 12:26:12;;;;;;;13.40;2.80;;;29.70;62.20;;;;;;5072964;28;20029;-68
2022/05/20 12:28:42;;;;;;;13.38;2.80;;;29.70;62.50;;;;;;5068743;28;20070;-68
2022/05/20 12:31:11;;;;;;;14.07;3.10;;;29.70;61.30;;;;;;5074335;28;20041;-69
2022/05/20 12:34:05;;;;;;;13.45;2.72;;;29.70;62.80;;;;;;5073572;28;20094;-69
2022/05/20 12:36:33;;;;;;;13.32;3.10;;;29.70;63.00;;;;;;5075353;28;20068;-69
2022/05/20 12:39:09;;;;;;;12.30;2.80;;;29.60;62.00;;;;;;5076387;28;20446;-68
2022/05/20 12:41:44;;;;;;;16.90;3.10;;;29.60;61.90;;;;;;5075941;28;20094;-69
2022/05/20 12:44:16;;;;;;;8.98;2.83;;;29.50;61.90;;;;;;5076092;28;20036;-69
2022/05/20 12:47:11;;;;;;;19.55;2.70;;;29.50;62.40;;;;;;5075002;28;20106;-69
2022/05/20 12:49:46;;;;;;;11.75;2.25;;;29.70;62.50;;;;;;5076059;28;20101;-69
2022/05/20 12:52:17;;;;;;;12.27;3.05;;;29.80;62.60;;;;;;5075943;28;20051;-68
2022/05/20 12:54:53;;;;;;;16.13;2.63;;;29.80;62.40;;;;;;5075741;28;20129;-69
2022/05/20 12:57:26;;;;;;;17.20;2.80;;;29.90;61.80;;;;;;5075254;28;20056;-68
2022/05/20 13:00:12;;;;;;;11.05;3.80;;;29.90;62.30;;;;;;5073921;28;20055;-68
2022/05/20 13:02:43;;;;;;;18.60;4.10;;;29.60;66.10;;;;;;5075581;28;20128;-68
2022/05/20 13:05:30;;;;;;;10.40;2.85;;;29.60;64.90;;;;;;5075760;28;20079;-68
2022/05/20 13:08:02;;;;;;;15.65;3.42;;;29.90;66.00;;;;;;5075376;28;20526;-68
2022/05/20 13:10:38;;;;;;;13.68;3.15;;;29.90;64.90;;;;;;5075469;28;20064;-68
2022/05/20 13:13:08;;;;;;;12.43;3.15;;;29.80;65.00;;;;;;5075421;28;20079;-68
2022/05/20 13:15:44;;;;;;;;;;;29.90;65.00;;;;;;5076023;28;20035;-68
2022/05/20 13:18:23;;;;;;;12.13;3.42;;;30.00;63.60;;;;;;5075209;28;19966;-67
2022/05/20 13:20:53;;;;;;;15.95;2.95;;;30.30;63.70;;;;;;5075487;28;20056;-68
2022/05/20 13:23:32;;;;;;;8.57;2.47;;;30.50;64.50;;;;;;5075453;28;20051;-68
2022/05/20 13:25:58;;;;;;;13.70;2.80;;;30.60;63.60;;;;;;5075296;28;20037;-68
2022/05/20 13:28:36;;;;;;;14.38;2.60;;;30.40;62.50;;;;;;5074854;28;20051;-68
2022/05/20 13:31:08;;;;;;;18.35;3.17;;;30.60;62.50;;;;;;5074517;28;21561;-68
2022/05/20 13:33:36;;;;;;;15.52;4.57;;;30.30;62.20;;;;;;5055207;28;20040;-68
2022/05/20 13:36:03;;;;;;;13.80;3.60;;;30.60;63.80;;;;;;5055090;28;20524;-69
2022/05/20 13:38:35;;;;;;;14.88;3.47;;;30.90;62.90;;;;;;5055023;28;20045;-68
2022/05/20 13:41:01;;;;;;;6.00;2.60;;;30.80;62.20;;;;;;5054782;28;20052;-68
2022/05/20 13:43:30;;;;;;;14.00;2.70;;;30.60;63.10;;;;;;5053871;28;20041;-68
2022/05/20 13:51:35;;;;;;;7.07;2.53;;;30.40;63.10;;;;;;5054891;28;19982;-68
2022/05/20 13:54:07;;;;;;;9.10;3.00;;;30.40;62.30;;;;;;5055000;28;20144;-68
2022/05/20 13:56:37;;;;;;;17.02;3.05;;;30.70;63.10;;;;;;5054759;28;20090;-69